createdAt,value
2018-06-15T00:04:22.850Z,94610.2
2018-06-15T00:09:19.604Z,94528.9
2018-06-15T00:14:16.313Z,94525.1
2018-06-15T00:19:13.124Z,94527.8
2018-06-15T00:24:09.682Z,94523
2018-06-15T00:29:06.716Z,94527.1
2018-06-15T00:34:03.490Z,94609.6
2018-06-15T00:39:00.495Z,94519.4
2018-06-15T00:43:57.484Z,94607.7
2018-06-15T00:48:54.363Z,94525.6
2018-06-15T00:53:51.023Z,94606
2018-06-15T00:58:48.033Z,94519.5
2018-06-15T01:03:45.135Z,94617.3
2018-06-15T01:08:42.205Z,94531.5
2018-06-15T01:13:38.612Z,94528.9
2018-06-15T01:18:35.328Z,94525.4
2018-06-15T01:23:32.437Z,94607
2018-06-15T01:28:29.366Z,94520.7
2018-06-15T01:33:26.109Z,94520.1
2018-06-15T01:38:22.681Z,94548.8
2018-06-15T01:43:19.491Z,94596.4
2018-06-15T01:48:15.937Z,94597.8
2018-06-15T01:53:13.340Z,94516.7
2018-06-15T01:58:10.008Z,94594.3
2018-06-15T02:03:07.119Z,94512.6
2018-06-15T02:08:03.755Z,94523.3
2018-06-15T02:13:01.009Z,94520.5
2018-06-15T02:17:57.256Z,94611.4
2018-06-15T02:22:54.518Z,94529.6
2018-06-15T02:27:51.400Z,94517.6
2018-06-15T02:32:48.239Z,94521.3
2018-06-15T02:37:45.020Z,94523.5
2018-06-15T02:42:41.562Z,94614.5
2018-06-15T02:47:38.423Z,94607.8
2018-06-15T02:52:35.404Z,94528.1
2018-06-15T02:57:32.272Z,94617.4
2018-06-15T03:02:29.070Z,94620.1
2018-06-15T03:07:26.041Z,94545.3
2018-06-15T03:12:22.998Z,94529.3
2018-06-15T03:17:19.639Z,94599.5
2018-06-15T03:22:16.176Z,94512.5
2018-06-15T03:27:13.072Z,94511
2018-06-15T03:32:10.175Z,94606.6
2018-06-15T03:37:07.181Z,94506.8
2018-06-15T03:42:03.725Z,94617.3
2018-06-15T03:47:00.469Z,94532.7
2018-06-15T03:51:57.137Z,94535.7
2018-06-15T03:56:53.408Z,94551.3
2018-06-15T04:01:50.576Z,94539.3
2018-06-15T04:06:47.262Z,94548.1
2018-06-15T04:11:43.935Z,94545.8
2018-06-15T04:16:40.472Z,94547
2018-06-15T04:21:37.187Z,94547.3
2018-06-15T04:26:33.961Z,94546.2
2018-06-15T04:31:30.698Z,94542.8
2018-06-15T04:36:27.529Z,94549.8
2018-06-15T04:41:24.426Z,94548.5
2018-06-15T04:46:21.184Z,94627.6
2018-06-15T04:51:18.255Z,94549.4
2018-06-15T04:56:15.015Z,94549.2
2018-06-15T05:01:11.742Z,94551.8
2018-06-15T05:06:08.647Z,94546.3
2018-06-15T05:11:05.614Z,94551.5
2018-06-15T05:16:02.182Z,94624.6
2018-06-15T05:20:59.106Z,94634.6
2018-06-15T05:25:56.122Z,94376.6
2018-06-15T05:30:52.309Z,94050.3
2018-06-15T05:35:48.397Z,94558.8
2018-06-15T05:40:45.406Z,94556.6
2018-06-15T05:45:41.939Z,94559.3
2018-06-15T05:50:38.885Z,94550.5
2018-06-15T05:55:35.514Z,94637.1
2018-06-15T06:00:32.022Z,94637.5
2018-06-15T06:05:29.032Z,94549
2018-06-15T06:10:25.174Z,94567.3
2018-06-15T06:15:21.997Z,94562.2
2018-06-15T06:20:18.816Z,94558
2018-06-15T06:25:15.618Z,94643.1
2018-06-15T06:30:12.407Z,94642.1
2018-06-15T06:35:09.310Z,94644.8
2018-06-15T06:40:06.222Z,94649
2018-06-15T06:45:03.005Z,94540.7
2018-06-15T06:49:59.748Z,94620.1
2018-06-15T06:54:56.611Z,94642.7
2018-06-15T06:59:53.494Z,94647
2018-06-15T07:04:50.178Z,94642.4
2018-06-15T07:09:47.178Z,94528.6
2018-06-15T07:14:43.663Z,94554.1
2018-06-15T07:19:40.716Z,94636.9
2018-06-15T07:24:37.566Z,94487.1
2018-06-15T07:29:34.557Z,94551.1
2018-06-15T07:34:31.295Z,94627.3
2018-06-15T07:39:28.252Z,94543
2018-06-15T07:44:25.081Z,94622.6
2018-06-15T07:49:22.084Z,94618
2018-06-15T07:54:18.987Z,94539.9
2018-06-15T07:59:15.860Z,94618
2018-06-15T08:04:12.813Z,94536.3
2018-06-15T08:09:09.512Z,94613.5
2018-06-15T08:14:06.431Z,94528.3
2018-06-15T08:19:03.536Z,94529.2
2018-06-15T08:24:00.249Z,94533.3
2018-06-15T08:28:57.164Z,94601.7
2018-06-15T08:33:54.337Z,94514.9
2018-06-15T08:38:51.292Z,94517
2018-06-15T08:43:47.866Z,94517.5
2018-06-15T08:48:44.501Z,94510.3
2018-06-15T08:53:41.757Z,94517.1
2018-06-15T08:58:39.068Z,94520
2018-06-15T09:03:35.831Z,94527.4
2018-06-15T09:08:32.793Z,94605.9
2018-06-15T09:13:29.707Z,94519.3
2018-06-15T09:18:26.535Z,94518.3
2018-06-15T09:23:23.465Z,94585
2018-06-15T09:28:20.221Z,94547.3
2018-06-15T09:33:17.121Z,94502
2018-06-15T09:38:14.373Z,94508.9
2018-06-15T09:43:11.456Z,94505
2018-06-15T09:48:08.529Z,94564.5
2018-06-15T09:53:05.245Z,94536.5
2018-06-15T09:58:02.244Z,94546.1
2018-06-15T10:02:59.302Z,94584.7
2018-06-15T10:07:56.460Z,94589.5
2018-06-15T10:12:53.709Z,93738.2
2018-06-15T10:17:50.675Z,94527.1
2018-06-15T10:22:47.661Z,94526.8
2018-06-15T10:27:44.213Z,94548.4
2018-06-15T10:32:41.052Z,94459.6
2018-06-15T10:37:41.928Z,94621.5
2018-06-15T10:42:38.383Z,94437.6
2018-06-15T10:47:35.512Z,94436.7
2018-06-15T10:52:32.420Z,94512.7
2018-06-15T10:57:29.433Z,94430.2
2018-06-15T11:02:26.719Z,94442
2018-06-15T11:07:23.432Z,94541.7
2018-06-15T11:12:20.442Z,94464.2
2018-06-15T11:17:17.393Z,94548.7
2018-06-15T11:22:14.041Z,94560.7
2018-06-15T11:27:10.928Z,94581.2
2018-06-15T11:32:07.769Z,94578
2018-06-15T11:37:04.050Z,94496.1
2018-06-15T11:42:00.560Z,94665.3
2018-06-15T11:46:57.922Z,94586.9
2018-06-15T11:51:54.589Z,94587.2
2018-06-15T11:56:51.370Z,94589.6
2018-06-15T12:01:48.288Z,94598
2018-06-15T12:06:45.301Z,94610.6
2018-06-15T12:11:42.207Z,94537.2
2018-06-15T12:16:39.366Z,94567.7
2018-06-15T12:21:36.276Z,94525.2
2018-06-15T12:26:33.188Z,94517.6
2018-06-15T12:31:30.022Z,94593.5
2018-06-15T12:36:26.909Z,94666.3
2018-06-15T12:41:23.781Z,94591.7
2018-06-15T12:46:20.730Z,94593.4
2018-06-15T12:51:17.508Z,94647.3
2018-06-15T12:56:14.278Z,94591.1
2018-06-15T13:01:11.094Z,94589.6
2018-06-15T13:06:08.071Z,94541
2018-06-15T13:11:04.983Z,94568.3
2018-06-15T13:16:01.675Z,94564.2
2018-06-15T13:20:58.652Z,94564.9
2018-06-15T13:25:55.175Z,94583
2018-06-15T13:30:51.998Z,94593.3
2018-06-15T13:35:48.768Z,94604.4
2018-06-15T13:40:45.575Z,94612.7
2018-06-15T13:45:42.332Z,94530.5
2018-06-15T13:50:38.935Z,94613.9
2018-06-15T13:55:36.004Z,94524.8
2018-06-15T14:00:32.889Z,94534.3
2018-06-15T14:05:29.637Z,94630.2
2018-06-15T14:10:26.233Z,94626.3
2018-06-15T14:15:22.421Z,94625.8
2018-06-15T14:20:19.006Z,94637.4
2018-06-15T14:25:15.761Z,94574.3
2018-06-15T14:30:12.314Z,94673.4
2018-06-15T14:35:08.931Z,94601.4
2018-06-15T14:40:05.330Z,94703.1
2018-06-15T14:45:02.177Z,94619.7
2018-06-15T14:49:58.846Z,94693.7
2018-06-15T14:54:55.920Z,94686.2
2018-06-15T14:59:52.565Z,94704
2018-06-15T15:04:49.438Z,94721.4
2018-06-15T15:09:46.431Z,94646.6
2018-06-15T15:14:43.420Z,94639.8
2018-06-15T15:19:40.232Z,94709.7
2018-06-15T15:24:37.234Z,94600.9
2018-06-15T15:29:33.920Z,94584.9
2018-06-15T15:34:30.842Z,94631.7
2018-06-15T15:39:27.668Z,94565.3
2018-06-15T15:44:24.597Z,94557.9
2018-06-15T15:49:21.490Z,94651
2018-06-15T15:54:18.240Z,94636
2018-06-15T15:59:15.178Z,94585.4
2018-06-15T16:04:12.201Z,94576.2
2018-06-15T16:09:09.186Z,94582.1
2018-06-15T16:14:06.105Z,94596.9
2018-06-15T16:19:03.060Z,94712.7
2018-06-15T16:23:59.984Z,94718.4
2018-06-15T16:28:56.866Z,94644.5
2018-06-15T16:33:53.790Z,94723
2018-06-15T16:38:50.697Z,94651.6
2018-06-15T16:43:47.655Z,94741.8
2018-06-15T16:48:44.854Z,94671.7
2018-06-15T16:53:41.640Z,94761.2
2018-06-15T16:58:38.639Z,94767.1
2018-06-15T17:03:35.492Z,94780.3
2018-06-15T17:08:32.396Z,94789.3
2018-06-15T17:13:29.444Z,94696.3
2018-06-15T17:18:26.405Z,94779.4
2018-06-15T17:23:23.481Z,94768.8
2018-06-15T17:28:20.306Z,94733.8
2018-06-15T17:33:17.273Z,94662.1
2018-06-15T17:38:14.085Z,94666.9
2018-06-15T17:43:11.090Z,94750.4
2018-06-15T17:48:07.707Z,94752.5
2018-06-15T17:53:04.958Z,94660.4
2018-06-15T17:58:01.663Z,94753.5
2018-06-15T18:02:58.392Z,94765.3
2018-06-15T18:07:55.301Z,94761.1
2018-06-15T18:12:52.110Z,94759.2
2018-06-15T18:17:48.895Z,94774.5
2018-06-15T18:22:45.922Z,94786.3
2018-06-15T18:27:43.004Z,94799.5
2018-06-15T18:32:39.803Z,94727.6
2018-06-15T18:37:36.976Z,94913.8
2018-06-15T18:42:34.004Z,94827.2
2018-06-15T18:47:30.738Z,94836
2018-06-15T18:52:27.834Z,94835.8
2018-06-15T18:57:25.085Z,94745.7
2018-06-15T19:02:21.567Z,94830.8
2018-06-15T19:07:18.666Z,94743
2018-06-15T19:12:15.855Z,94834.5
2018-06-15T19:17:12.432Z,94832.5
2018-06-15T19:22:09.195Z,94829.1
2018-06-15T19:27:06.073Z,94831.6
2018-06-15T19:32:02.595Z,94836.4
2018-06-15T19:36:59.501Z,94876.8
2018-06-15T19:41:56.410Z,94925.9
2018-06-15T19:46:53.341Z,94781.6
2018-06-15T19:51:50.326Z,94837.5
2018-06-15T19:56:47.552Z,94908.7
2018-06-15T20:01:44.606Z,94801.8
2018-06-15T20:06:41.710Z,94781.8
2018-06-15T20:11:38.642Z,94831.8
2018-06-15T20:16:35.438Z,94920.3
2018-06-15T20:21:32.608Z,94903.4
2018-06-15T20:26:29.596Z,94824.9
2018-06-15T20:31:26.575Z,94826.8
2018-06-15T20:36:23.508Z,94897.2
2018-06-15T20:41:20.634Z,94827
2018-06-15T20:46:18.089Z,94742.5
2018-06-15T20:51:14.695Z,94747.6
2018-06-15T20:56:11.705Z,94727.6
2018-06-15T21:01:08.683Z,94733.9
2018-06-15T21:06:05.558Z,94819.7
2018-06-15T21:11:02.604Z,94745.1
2018-06-15T21:15:59.794Z,94821.1
2018-06-15T21:20:56.764Z,94827.4
2018-06-15T21:25:53.604Z,94825.1
2018-06-15T21:30:50.543Z,94751
2018-06-15T21:35:47.425Z,94829.1
2018-06-15T21:40:44.356Z,94825.8
2018-06-15T21:45:41.426Z,94834.8
2018-06-15T21:50:38.433Z,94838.2
2018-06-15T21:55:35.302Z,94755.2
2018-06-15T22:00:32.188Z,94920.3
2018-06-15T22:05:29.325Z,94747
2018-06-15T22:10:26.276Z,94904.2
2018-06-15T22:15:22.983Z,94739.6
2018-06-15T22:20:19.852Z,94694.7
2018-06-15T22:25:17.371Z,94739
2018-06-15T22:30:13.957Z,94732.3
2018-06-15T22:35:11.061Z,94887.6
2018-06-15T22:40:07.817Z,94802.9
2018-06-15T22:45:04.558Z,94714.4
2018-06-15T22:50:01.601Z,94703.5
2018-06-15T22:54:58.530Z,94884.7
2018-06-15T22:59:55.459Z,94722.1
2018-06-15T23:04:52.225Z,94872.9
2018-06-15T23:09:48.749Z,94811.3
2018-06-15T23:14:45.536Z,94742.9
2018-06-15T23:19:42.692Z,94729.7
2018-06-15T23:24:39.631Z,94827.6
2018-06-15T23:29:36.827Z,94833.9
2018-06-15T23:34:33.730Z,94751.8
2018-06-15T23:39:29.858Z,94739.4
2018-06-15T23:44:26.860Z,94737.3
2018-06-15T23:49:23.979Z,94825.5
2018-06-15T23:54:20.612Z,94800.5
2018-06-15T23:59:17.461Z,94900
